sensor_id;sensor_type;location;lat;lon;timestamp;P1;durP1;ratioP1;P2;durP2;ratioP2
43640;SDS011;72791;52.546;13.570;2023-10-09T00:00:08;2.53;;;1.90;;
43640;SDS011;72791;52.546;13.570;2023-10-09T00:03:00;6.78;;;2.25;;
43640;SDS011;72791;52.546;13.570;2023-10-09T00:05:32;3.60;;;2.25;;
43640;SDS011;72791;52.546;13.570;2023-10-09T00:08:14;5.95;;;2.50;;
43640;SDS011;72791;52.546;13.570;2023-10-09T00:10:50;4.63;;;1.83;;
43640;SDS011;72791;52.546;13.570;2023-10-09T00:13:27;3.95;;;2.35;;
43640;SDS011;72791;52.546;13.570;2023-10-09T00:15:55;3.90;;;2.58;;
43640;SDS011;72791;52.546;13.570;2023-10-09T00:18:26;5.18;;;2.35;;
43640;SDS011;72791;52.546;13.570;2023-10-09T03:39:43;7.43;;;4.20;;
43640;SDS011;72791;52.546;13.570;2023-10-09T03:42:12;8.40;;;4.40;;
43640;SDS011;72791;52.546;13.570;2023-10-09T03:44:44;11.93;;;4.75;;
43640;SDS011;72791;52.546;13.570;2023-10-09T03:47:18;7.57;;;4.85;;
43640;SDS011;72791;52.546;13.570;2023-10-09T03:49:50;7.22;;;5.32;;
43640;SDS011;72791;52.546;13.570;2023-10-09T03:52:19;6.45;;;4.75;;
43640;SDS011;72791;52.546;13.570;2023-10-09T03:54:45;8.18;;;4.80;;
43640;SDS011;72791;52.546;13.570;2023-10-09T03:57:14;7.72;;;4.43;;
43640;SDS011;72791;52.546;13.570;2023-10-09T03:59:45;6.93;;;4.70;;
43640;SDS011;72791;52.546;13.570;2023-10-09T04:02:16;8.02;;;5.10;;
43640;SDS011;72791;52.546;13.570;2023-10-09T04:04:42;9.55;;;5.47;;
43640;SDS011;72791;52.546;13.570;2023-10-09T04:07:12;7.03;;;5.32;;
43640;SDS011;72791;52.546;13.570;2023-10-09T04:09:41;8.23;;;5.40;;
43640;SDS011;72791;52.546;13.570;2023-10-09T04:12:10;8.70;;;5.32;;
43640;SDS011;72791;52.546;13.570;2023-10-09T04:14:37;9.25;;;5.68;;
43640;SDS011;72791;52.546;13.570;2023-10-09T04:17:13;11.15;;;5.90;;
43640;SDS011;72791;52.546;13.570;2023-10-09T04:19:47;8.32;;;6.05;;
43640;SDS011;72791;52.546;13.570;2023-10-09T04:22:19;10.18;;;5.95;;
43640;SDS011;72791;52.546;13.570;2023-10-09T04:24:52;6.82;;;5.75;;
43640;SDS011;72791;52.546;13.570;2023-10-09T04:27:18;5.78;;;5.15;;
43640;SDS011;72791;52.546;13.570;2023-10-09T04:29:51;7.03;;;5.15;;
43640;SDS011;72791;52.546;13.570;2023-10-09T04:32:19;10.18;;;6.25;;
43640;SDS011;72791;52.546;13.570;2023-10-09T04:34:50;7.63;;;5.95;;
43640;SDS011;72791;52.546;13.570;2023-10-09T04:37:41;10.30;;;6.07;;
43640;SDS011;72791;52.546;13.570;2023-10-09T04:40:11;8.90;;;6.38;;
43640;SDS011;72791;52.546;13.570;2023-10-09T04:42:55;8.43;;;6.18;;
43640;SDS011;72791;52.546;13.570;2023-10-09T04:45:24;9.15;;;6.57;;
43640;SDS011;72791;52.546;13.570;2023-10-09T04:48:09;10.23;;;6.53;;
43640;SDS011;72791;52.546;13.570;2023-10-09T04:50:35;11.05;;;7.22;;
43640;SDS011;72791;52.546;13.570;2023-10-09T04:53:10;8.50;;;6.63;;
43640;SDS011;72791;52.546;13.570;2023-10-09T04:55:41;9.30;;;7.13;;
43640;SDS011;72791;52.546;13.570;2023-10-09T04:58:19;8.65;;;6.63;;
43640;SDS011;72791;52.546;13.570;2023-10-09T05:00:52;12.60;;;7.00;;
43640;SDS011;72791;52.546;13.570;2023-10-09T05:03:24;11.52;;;6.82;;
43640;SDS011;72791;52.546;13.570;2023-10-09T05:05:54;9.35;;;6.88;;
43640;SDS011;72791;52.546;13.570;2023-10-09T05:08:24;10.15;;;6.88;;
43640;SDS011;72791;52.546;13.570;2023-10-09T05:11:03;10.00;;;7.00;;
43640;SDS011;72791;52.546;13.570;2023-10-09T05:16:09;12.40;;;6.38;;
43640;SDS011;72791;52.546;13.570;2023-10-09T05:18:51;12.20;;;7.38;;
43640;SDS011;72791;52.546;13.570;2023-10-09T05:21:31;12.00;;;8.18;;
43640;SDS011;72791;52.546;13.570;2023-10-09T05:24:11;12.43;;;7.35;;
43640;SDS011;72791;52.546;13.570;2023-10-09T05:26:37;11.70;;;7.13;;
43640;SDS011;72791;52.546;13.570;2023-10-09T05:29:13;10.60;;;7.25;;
43640;SDS011;72791;52.546;13.570;2023-10-09T05:34:44;10.98;;;7.40;;
43640;SDS011;72791;52.546;13.570;2023-10-09T05:37:32;11.55;;;6.15;;
43640;SDS011;72791;52.546;13.570;2023-10-09T05:40:01;8.90;;;7.05;;
43640;SDS011;72791;52.546;13.570;2023-10-09T05:42:32;9.65;;;6.35;;
43640;SDS011;72791;52.546;13.570;2023-10-09T05:45:02;10.65;;;6.13;;
43640;SDS011;72791;52.546;13.570;2023-10-09T05:47:52;9.95;;;5.97;;
43640;SDS011;72791;52.546;13.570;2023-10-09T05:50:23;7.85;;;5.70;;
43640;SDS011;72791;52.546;13.570;2023-10-09T05:52:53;10.40;;;6.70;;
43640;SDS011;72791;52.546;13.570;2023-10-09T05:55:21;9.57;;;6.18;;
43640;SDS011;72791;52.546;13.570;2023-10-09T05:57:53;10.93;;;6.53;;
43640;SDS011;72791;52.546;13.570;2023-10-09T06:00:20;9.30;;;6.88;;
43640;SDS011;72791;52.546;13.570;2023-10-09T06:03:05;10.95;;;7.10;;
43640;SDS011;72791;52.546;13.570;2023-10-09T06:05:59;17.05;;;8.30;;
43640;SDS011;72791;52.546;13.570;2023-10-09T06:08:25;10.02;;;7.30;;
43640;SDS011;72791;52.546;13.570;2023-10-09T06:11:04;11.75;;;7.55;;
43640;SDS011;72791;52.546;13.570;2023-10-09T06:13:56;12.15;;;7.43;;
43640;SDS011;72791;52.546;13.570;2023-10-09T06:16:32;12.07;;;7.78;;
43640;SDS011;72791;52.546;13.570;2023-10-09T06:19:04;15.02;;;9.27;;
43640;SDS011;72791;52.546;13.570;2023-10-09T06:21:37;14.10;;;9.90;;
43640;SDS011;72791;52.546;13.570;2023-10-09T06:26:45;11.55;;;7.90;;
43640;SDS011;72791;52.546;13.570;2023-10-09T06:29:23;14.45;;;8.45;;
43640;SDS011;72791;52.546;13.570;2023-10-09T06:32:05;13.85;;;7.80;;
43640;SDS011;72791;52.546;13.570;2023-10-09T06:34:45;10.30;;;8.43;;
43640;SDS011;72791;52.546;13.570;2023-10-09T06:37:16;11.35;;;8.55;;
43640;SDS011;72791;52.546;13.570;2023-10-09T06:39:48;11.32;;;8.30;;
43640;SDS011;72791;52.546;13.570;2023-10-09T06:42:23;11.60;;;8.43;;
43640;SDS011;72791;52.546;13.570;2023-10-09T06:45:01;12.85;;;8.88;;
43640;SDS011;72791;52.546;13.570;2023-10-09T06:47:39;11.68;;;7.22;;
43640;SDS011;72791;52.546;13.570;2023-10-09T06:50:10;12.23;;;8.60;;
43640;SDS011;72791;52.546;13.570;2023-10-09T06:52:45;8.77;;;7.88;;
43640;SDS011;72791;52.546;13.570;2023-10-09T06:55:36;13.23;;;8.02;;
43640;SDS011;72791;52.546;13.570;2023-10-09T06:58:16;14.02;;;9.10;;
43640;SDS011;72791;52.546;13.570;2023-10-09T07:00:53;11.07;;;7.78;;
43640;SDS011;72791;52.546;13.570;2023-10-09T07:03:23;9.82;;;8.07;;
43640;SDS011;72791;52.546;13.570;2023-10-09T07:06:10;15.07;;;9.20;;
43640;SDS011;72791;52.546;13.570;2023-10-09T07:08:54;12.77;;;7.85;;
43640;SDS011;72791;52.546;13.570;2023-10-09T07:11:33;10.60;;;7.88;;
43640;SDS011;72791;52.546;13.570;2023-10-09T07:14:09;10.05;;;7.65;;
43640;SDS011;72791;52.546;13.570;2023-10-09T07:17:03;9.77;;;8.07;;
43640;SDS011;72791;52.546;13.570;2023-10-09T07:19:41;10.02;;;7.60;;
43640;SDS011;72791;52.546;13.570;2023-10-09T07:22:12;13.52;;;8.13;;
43640;SDS011;72791;52.546;13.570;2023-10-09T07:24:49;13.45;;;7.72;;
43640;SDS011;72791;52.546;13.570;2023-10-09T07:27:22;10.52;;;7.63;;
43640;SDS011;72791;52.546;13.570;2023-10-09T07:30:08;12.18;;;7.63;;
43640;SDS011;72791;52.546;13.570;2023-10-09T07:32:57;11.77;;;8.02;;
43640;SDS011;72791;52.546;13.570;2023-10-09T07:35:37;9.73;;;7.75;;
43640;SDS011;72791;52.546;13.570;2023-10-09T07:38:07;12.70;;;7.78;;
43640;SDS011;72791;52.546;13.570;2023-10-09T07:40:37;10.05;;;8.45;;
43640;SDS011;72791;52.546;13.570;2023-10-09T07:43:23;10.30;;;7.97;;
43640;SDS011;72791;52.546;13.570;2023-10-09T07:45:56;11.55;;;7.90;;
43640;SDS011;72791;52.546;13.570;2023-10-09T07:48:22;10.90;;;7.43;;
43640;SDS011;72791;52.546;13.570;2023-10-09T07:50:51;10.50;;;7.25;;
43640;SDS011;72791;52.546;13.570;2023-10-09T07:53:25;9.90;;;7.85;;
43640;SDS011;72791;52.546;13.570;2023-10-09T07:55:54;10.32;;;8.25;;
43640;SDS011;72791;52.546;13.570;2023-10-09T07:58:31;11.93;;;8.27;;
43640;SDS011;72791;52.546;13.570;2023-10-09T08:01:11;10.65;;;8.10;;
43640;SDS011;72791;52.546;13.570;2023-10-09T08:04:09;13.70;;;9.20;;
43640;SDS011;72791;52.546;13.570;2023-10-09T08:06:45;11.43;;;9.00;;
43640;SDS011;72791;52.546;13.570;2023-10-09T08:09:12;12.32;;;9.57;;
43640;SDS011;72791;52.546;13.570;2023-10-09T08:11:38;12.93;;;8.98;;
43640;SDS011;72791;52.546;13.570;2023-10-09T08:14:11;11.88;;;9.35;;
43640;SDS011;72791;52.546;13.570;2023-10-09T08:16:56;14.35;;;8.85;;
43640;SDS011;72791;52.546;13.570;2023-10-09T08:19:47;12.52;;;9.57;;
43640;SDS011;72791;52.546;13.570;2023-10-09T08:22:36;16.65;;;9.50;;
43640;SDS011;72791;52.546;13.570;2023-10-09T08:25:12;11.55;;;8.57;;
43640;SDS011;72791;52.546;13.570;2023-10-09T08:27:54;14.65;;;10.73;;
43640;SDS011;72791;52.546;13.570;2023-10-09T08:30:22;14.10;;;9.57;;
43640;SDS011;72791;52.546;13.570;2023-10-09T09:39:26;11.95;;;5.90;;
43640;SDS011;72791;52.546;13.570;2023-10-09T09:41:57;10.23;;;4.78;;
43640;SDS011;72791;52.546;13.570;2023-10-09T09:44:33;10.50;;;4.38;;
43640;SDS011;72791;52.546;13.570;2023-10-09T09:47:08;6.60;;;4.60;;
43640;SDS011;72791;52.546;13.570;2023-10-09T09:49:41;6.72;;;4.35;;
43640;SDS011;72791;52.546;13.570;2023-10-09T09:52:08;6.35;;;4.18;;
43640;SDS011;72791;52.546;13.570;2023-10-09T09:54:37;5.63;;;4.13;;
43640;SDS011;72791;52.546;13.570;2023-10-09T09:57:04;9.18;;;4.18;;
43640;SDS011;72791;52.546;13.570;2023-10-09T09:59:39;9.65;;;4.60;;
43640;SDS011;72791;52.546;13.570;2023-10-09T10:02:15;10.07;;;5.07;;
43640;SDS011;72791;52.546;13.570;2023-10-09T10:04:51;6.95;;;4.10;;
43640;SDS011;72791;52.546;13.570;2023-10-09T10:07:21;9.85;;;5.90;;
43640;SDS011;72791;52.546;13.570;2023-10-09T10:09:49;8.05;;;4.88;;
43640;SDS011;72791;52.546;13.570;2023-10-09T10:13:05;8.15;;;4.30;;
43640;SDS011;72791;52.546;13.570;2023-10-09T10:18:24;7.55;;;4.55;;
43640;SDS011;72791;52.546;13.570;2023-10-09T10:23:41;13.90;;;5.55;;
43640;SDS011;72791;52.546;13.570;2023-10-09T10:26:21;5.95;;;4.13;;
43640;SDS011;72791;52.546;13.570;2023-10-09T10:31:58;6.78;;;3.83;;
43640;SDS011;72791;52.546;13.570;2023-10-09T10:37:36;7.25;;;4.57;;
43640;SDS011;72791;52.546;13.570;2023-10-09T10:40:09;6.75;;;4.65;;
43640;SDS011;72791;52.546;13.570;2023-10-09T10:42:47;11.55;;;4.55;;
43640;SDS011;72791;52.546;13.570;2023-10-09T10:45:34;6.30;;;4.88;;
43640;SDS011;72791;52.546;13.570;2023-10-09T10:48:08;8.27;;;5.88;;
43640;SDS011;72791;52.546;13.570;2023-10-09T10:50:48;7.10;;;5.50;;
43640;SDS011;72791;52.546;13.570;2023-10-09T10:53:22;7.50;;;5.22;;
43640;SDS011;72791;52.546;13.570;2023-10-09T10:55:59;7.10;;;5.22;;
43640;SDS011;72791;52.546;13.570;2023-10-09T10:58:38;8.32;;;5.00;;
43640;SDS011;72791;52.546;13.570;2023-10-09T11:01:12;12.77;;;5.93;;
43640;SDS011;72791;52.546;13.570;2023-10-09T11:03:40;9.40;;;5.85;;
43640;SDS011;72791;52.546;13.570;2023-10-09T11:06:30;8.52;;;5.57;;
43640;SDS011;72791;52.546;13.570;2023-10-09T11:09:06;7.10;;;4.80;;
43640;SDS011;72791;52.546;13.570;2023-10-09T11:11:56;7.22;;;5.20;;
43640;SDS011;72791;52.546;13.570;2023-10-09T11:14:47;7.75;;;5.25;;
43640;SDS011;72791;52.546;13.570;2023-10-09T11:17:35;11.32;;;5.85;;
43640;SDS011;72791;52.546;13.570;2023-10-09T11:20:02;8.27;;;5.60;;
43640;SDS011;72791;52.546;13.570;2023-10-09T11:22:55;15.95;;;6.07;;
43640;SDS011;72791;52.546;13.570;2023-10-09T11:25:39;8.32;;;5.65;;
43640;SDS011;72791;52.546;13.570;2023-10-09T11:28:19;10.60;;;5.97;;
43640;SDS011;72791;52.546;13.570;2023-10-09T11:33:52;11.18;;;6.65;;
43640;SDS011;72791;52.546;13.570;2023-10-09T11:36:19;8.13;;;6.22;;
43640;SDS011;72791;52.546;13.570;2023-10-09T11:38:59;9.68;;;5.78;;
43640;SDS011;72791;52.546;13.570;2023-10-09T11:41:41;8.02;;;5.45;;
43640;SDS011;72791;52.546;13.570;2023-10-09T11:44:07;7.80;;;5.28;;
43640;SDS011;72791;52.546;13.570;2023-10-09T11:46:59;10.18;;;6.40;;
43640;SDS011;72791;52.546;13.570;2023-10-09T11:49:54;6.78;;;5.47;;
43640;SDS011;72791;52.546;13.570;2023-10-09T11:52:54;7.28;;;5.45;;
43640;SDS011;72791;52.546;13.570;2023-10-09T11:55:34;9.25;;;5.47;;
43640;SDS011;72791;52.546;13.570;2023-10-09T11:58:01;12.63;;;5.93;;
43640;SDS011;72791;52.546;13.570;2023-10-09T12:00:30;10.07;;;5.05;;
43640;SDS011;72791;52.546;13.570;2023-10-09T12:03:09;6.25;;;4.72;;
43640;SDS011;72791;52.546;13.570;2023-10-09T12:05:35;7.63;;;5.00;;
43640;SDS011;72791;52.546;13.570;2023-10-09T12:08:02;5.95;;;4.90;;
43640;SDS011;72791;52.546;13.570;2023-10-09T12:10:33;6.88;;;5.35;;
43640;SDS011;72791;52.546;13.570;2023-10-09T12:12:59;6.78;;;5.55;;
43640;SDS011;72791;52.546;13.570;2023-10-09T12:15:31;7.72;;;5.78;;
43640;SDS011;72791;52.546;13.570;2023-10-09T12:18:05;6.63;;;5.90;;
43640;SDS011;72791;52.546;13.570;2023-10-09T12:20:34;12.02;;;6.38;;
43640;SDS011;72791;52.546;13.570;2023-10-09T12:23:01;10.00;;;5.75;;
43640;SDS011;72791;52.546;13.570;2023-10-09T12:25:31;8.32;;;5.82;;
43640;SDS011;72791;52.546;13.570;2023-10-09T12:28:02;6.18;;;5.10;;
43640;SDS011;72791;52.546;13.570;2023-10-09T12:30:30;6.90;;;4.90;;
43640;SDS011;72791;52.546;13.570;2023-10-09T12:32:56;8.15;;;5.22;;
43640;SDS011;72791;52.546;13.570;2023-10-09T12:35:26;6.20;;;5.50;;
43640;SDS011;72791;52.546;13.570;2023-10-09T12:37:59;7.10;;;5.40;;
43640;SDS011;72791;52.546;13.570;2023-10-09T12:40:26;9.90;;;5.65;;
43640;SDS011;72791;52.546;13.570;2023-10-09T12:42:56;5.80;;;5.20;;
43640;SDS011;72791;52.546;13.570;2023-10-09T12:45:26;9.73;;;6.20;;
43640;SDS011;72791;52.546;13.570;2023-10-09T12:47:55;7.70;;;5.63;;
43640;SDS011;72791;52.546;13.570;2023-10-09T12:50:25;8.07;;;5.70;;
43640;SDS011;72791;52.546;13.570;2023-10-09T12:52:57;6.82;;;5.82;;
43640;SDS011;72791;52.546;13.570;2023-10-09T12:55:38;13.68;;;7.07;;
43640;SDS011;72791;52.546;13.570;2023-10-09T12:58:08;9.43;;;6.28;;
43640;SDS011;72791;52.546;13.570;2023-10-09T13:00:39;8.57;;;6.40;;
43640;SDS011;72791;52.546;13.570;2023-10-09T13:03:10;11.07;;;7.32;;
43640;SDS011;72791;52.546;13.570;2023-10-09T13:05:50;7.68;;;6.72;;
43640;SDS011;72791;52.546;13.570;2023-10-09T13:08:21;12.77;;;7.70;;
43640;SDS011;72791;52.546;13.570;2023-10-09T13:10:52;11.57;;;7.03;;
43640;SDS011;72791;52.546;13.570;2023-10-09T13:13:26;8.75;;;6.32;;
43640;SDS011;72791;52.546;13.570;2023-10-09T13:16:15;6.38;;;5.78;;
43640;SDS011;72791;52.546;13.570;2023-10-09T13:18:50;7.25;;;6.03;;
43640;SDS011;72791;52.546;13.570;2023-10-09T13:21:17;7.43;;;6.50;;
43640;SDS011;72791;52.546;13.570;2023-10-09T13:23:57;6.78;;;6.03;;
43640;SDS011;72791;52.546;13.570;2023-10-09T13:26:25;7.32;;;6.47;;
43640;SDS011;72791;52.546;13.570;2023-10-09T13:28:59;8.85;;;6.78;;
43640;SDS011;72791;52.546;13.570;2023-10-09T13:31:29;6.93;;;5.70;;
43640;SDS011;72791;52.546;13.570;2023-10-09T13:33:58;8.60;;;5.97;;
43640;SDS011;72791;52.546;13.570;2023-10-09T13:36:26;7.63;;;6.40;;
43640;SDS011;72791;52.546;13.570;2023-10-09T13:38:54;8.32;;;7.18;;
43640;SDS011;72791;52.546;13.570;2023-10-09T13:41:21;7.35;;;6.60;;
43640;SDS011;72791;52.546;13.570;2023-10-09T13:43:55;10.50;;;7.35;;
43640;SDS011;72791;52.546;13.570;2023-10-09T13:46:25;7.90;;;6.50;;
43640;SDS011;72791;52.546;13.570;2023-10-09T13:48:54;9.70;;;7.63;;
43640;SDS011;72791;52.546;13.570;2023-10-09T13:51:19;8.63;;;6.93;;
43640;SDS011;72791;52.546;13.570;2023-10-09T13:53:49;14.40;;;8.10;;
43640;SDS011;72791;52.546;13.570;2023-10-09T13:56:15;9.75;;;6.72;;
43640;SDS011;72791;52.546;13.570;2023-10-09T13:58:48;8.07;;;6.90;;
43640;SDS011;72791;52.546;13.570;2023-10-09T14:01:20;8.05;;;5.55;;
43640;SDS011;72791;52.546;13.570;2023-10-09T14:04:01;7.47;;;6.78;;
43640;SDS011;72791;52.546;13.570;2023-10-09T14:06:27;6.68;;;6.03;;
43640;SDS011;72791;52.546;13.570;2023-10-09T14:08:56;9.07;;;6.78;;
43640;SDS011;72791;52.546;13.570;2023-10-09T14:11:25;12.82;;;6.55;;
43640;SDS011;72791;52.546;13.570;2023-10-09T14:13:54;8.52;;;6.65;;
43640;SDS011;72791;52.546;13.570;2023-10-09T14:16:20;9.63;;;7.03;;
43640;SDS011;72791;52.546;13.570;2023-10-09T14:18:55;8.00;;;6.78;;
43640;SDS011;72791;52.546;13.570;2023-10-09T14:21:25;8.65;;;7.30;;
43640;SDS011;72791;52.546;13.570;2023-10-09T14:23:53;8.50;;;7.40;;
43640;SDS011;72791;52.546;13.570;2023-10-09T14:26:26;8.10;;;7.18;;
43640;SDS011;72791;52.546;13.570;2023-10-09T14:28:55;8.45;;;7.13;;
43640;SDS011;72791;52.546;13.570;2023-10-09T14:31:25;8.45;;;6.93;;
43640;SDS011;72791;52.546;13.570;2023-10-09T14:33:53;11.45;;;8.15;;
43640;SDS011;72791;52.546;13.570;2023-10-09T14:36:23;9.65;;;7.15;;
43640;SDS011;72791;52.546;13.570;2023-10-09T14:38:50;8.25;;;6.55;;
43640;SDS011;72791;52.546;13.570;2023-10-09T14:41:21;9.02;;;6.55;;
43640;SDS011;72791;52.546;13.570;2023-10-09T14:43:52;7.22;;;6.53;;
43640;SDS011;72791;52.546;13.570;2023-10-09T14:46:18;6.82;;;6.10;;
43640;SDS011;72791;52.546;13.570;2023-10-09T14:48:51;10.70;;;6.95;;
43640;SDS011;72791;52.546;13.570;2023-10-09T14:51:21;7.90;;;6.43;;
43640;SDS011;72791;52.546;13.570;2023-10-09T14:53:55;9.02;;;6.82;;
43640;SDS011;72791;52.546;13.570;2023-10-09T14:56:27;6.90;;;6.20;;
43640;SDS011;72791;52.546;13.570;2023-10-09T14:58:59;7.10;;;6.30;;
43640;SDS011;72791;52.546;13.570;2023-10-09T15:01:29;11.98;;;7.10;;
43640;SDS011;72791;52.546;13.570;2023-10-09T15:03:56;10.38;;;7.03;;
43640;SDS011;72791;52.546;13.570;2023-10-09T15:06:24;9.93;;;7.95;;
43640;SDS011;72791;52.546;13.570;2023-10-09T15:08:53;10.90;;;6.55;;
43640;SDS011;72791;52.546;13.570;2023-10-09T15:11:26;7.32;;;6.57;;
43640;SDS011;72791;52.546;13.570;2023-10-09T15:13:54;7.15;;;6.45;;
43640;SDS011;72791;52.546;13.570;2023-10-09T15:16:23;10.07;;;7.47;;
43640;SDS011;72791;52.546;13.570;2023-10-09T15:18:52;8.38;;;7.30;;
43640;SDS011;72791;52.546;13.570;2023-10-09T15:21:19;7.82;;;6.93;;
43640;SDS011;72791;52.546;13.570;2023-10-09T15:23:48;8.05;;;7.13;;
43640;SDS011;72791;52.546;13.570;2023-10-09T15:26:19;7.60;;;6.35;;
43640;SDS011;72791;52.546;13.570;2023-10-09T15:28:48;12.27;;;7.75;;
43640;SDS011;72791;52.546;13.570;2023-10-09T15:31:14;10.57;;;8.43;;
43640;SDS011;72791;52.546;13.570;2023-10-09T15:33:41;12.88;;;7.07;;
43640;SDS011;72791;52.546;13.570;2023-10-09T15:36:14;15.50;;;7.72;;
43640;SDS011;72791;52.546;13.570;2023-10-09T15:38:42;9.40;;;7.40;;
43640;SDS011;72791;52.546;13.570;2023-10-09T15:41:08;9.20;;;7.20;;
43640;SDS011;72791;52.546;13.570;2023-10-09T15:43:35;8.65;;;7.32;;
43640;SDS011;72791;52.546;13.570;2023-10-09T15:46:07;10.48;;;7.70;;
43640;SDS011;72791;52.546;13.570;2023-10-09T15:48:39;10.95;;;7.78;;
43640;SDS011;72791;52.546;13.570;2023-10-09T15:51:15;9.60;;;7.10;;
43640;SDS011;72791;52.546;13.570;2023-10-09T15:53:43;8.23;;;7.10;;
43640;SDS011;72791;52.546;13.570;2023-10-09T15:56:10;10.82;;;7.68;;
43640;SDS011;72791;52.546;13.570;2023-10-09T15:58:37;10.13;;;7.45;;
43640;SDS011;72791;52.546;13.570;2023-10-09T16:01:13;11.82;;;7.78;;
43640;SDS011;72791;52.546;13.570;2023-10-09T16:03:43;10.07;;;6.80;;
43640;SDS011;72791;52.546;13.570;2023-10-09T16:06:10;9.95;;;6.70;;
43640;SDS011;72791;52.546;13.570;2023-10-09T16:08:39;7.47;;;6.75;;
43640;SDS011;72791;52.546;13.570;2023-10-09T16:11:07;8.02;;;6.60;;
43640;SDS011;72791;52.546;13.570;2023-10-09T16:13:33;9.75;;;7.65;;
43640;SDS011;72791;52.546;13.570;2023-10-09T16:16:00;11.73;;;7.63;;
43640;SDS011;72791;52.546;13.570;2023-10-09T16:18:26;10.45;;;7.50;;
43640;SDS011;72791;52.546;13.570;2023-10-09T16:20:55;9.05;;;7.05;;
43640;SDS011;72791;52.546;13.570;2023-10-09T16:23:22;8.55;;;7.63;;
43640;SDS011;72791;52.546;13.570;2023-10-09T16:25:52;11.50;;;7.07;;
43640;SDS011;72791;52.546;13.570;2023-10-09T16:28:18;7.85;;;7.05;;
43640;SDS011;72791;52.546;13.570;2023-10-09T16:30:44;7.88;;;7.03;;
43640;SDS011;72791;52.546;13.570;2023-10-09T16:33:09;9.82;;;7.32;;
43640;SDS011;72791;52.546;13.570;2023-10-09T16:35:36;8.63;;;6.95;;
43640;SDS011;72791;52.546;13.570;2023-10-09T16:38:03;10.93;;;7.65;;
43640;SDS011;72791;52.546;13.570;2023-10-09T16:40:36;9.98;;;7.88;;
43640;SDS011;72791;52.546;13.570;2023-10-09T16:43:02;9.07;;;8.15;;
43640;SDS011;72791;52.546;13.570;2023-10-09T16:45:30;10.95;;;7.75;;
43640;SDS011;72791;52.546;13.570;2023-10-09T16:48:00;9.93;;;8.25;;
43640;SDS011;72791;52.546;13.570;2023-10-09T16:50:30;11.60;;;9.38;;
43640;SDS011;72791;52.546;13.570;2023-10-09T16:52:56;9.13;;;8.15;;
43640;SDS011;72791;52.546;13.570;2023-10-09T16:55:23;11.18;;;8.82;;
43640;SDS011;72791;52.546;13.570;2023-10-09T16:57:52;9.57;;;8.07;;
43640;SDS011;72791;52.546;13.570;2023-10-09T17:00:20;11.15;;;8.57;;
43640;SDS011;72791;52.546;13.570;2023-10-09T17:02:59;10.05;;;7.93;;
43640;SDS011;72791;52.546;13.570;2023-10-09T17:05:34;10.20;;;8.40;;
43640;SDS011;72791;52.546;13.570;2023-10-09T17:08:20;10.48;;;8.68;;
43640;SDS011;72791;52.546;13.570;2023-10-09T17:10:48;9.73;;;8.30;;
43640;SDS011;72791;52.546;13.570;2023-10-09T17:13:17;11.73;;;8.93;;
43640;SDS011;72791;52.546;13.570;2023-10-09T17:15:50;12.93;;;10.02;;
43640;SDS011;72791;52.546;13.570;2023-10-09T17:18:20;11.18;;;8.77;;
43640;SDS011;72791;52.546;13.570;2023-10-09T17:20:51;10.73;;;8.77;;
43640;SDS011;72791;52.546;13.570;2023-10-09T17:23:17;11.95;;;9.90;;
43640;SDS011;72791;52.546;13.570;2023-10-09T17:25:44;13.80;;;9.60;;
43640;SDS011;72791;52.546;13.570;2023-10-09T17:28:11;13.73;;;9.77;;
43640;SDS011;72791;52.546;13.570;2023-10-09T17:30:45;12.52;;;9.38;;
43640;SDS011;72791;52.546;13.570;2023-10-09T17:33:14;11.30;;;9.23;;
43640;SDS011;72791;52.546;13.570;2023-10-09T17:35:47;10.90;;;9.57;;
43640;SDS011;72791;52.546;13.570;2023-10-09T17:38:14;15.48;;;10.68;;
43640;SDS011;72791;52.546;13.570;2023-10-09T17:40:49;11.30;;;9.88;;
43640;SDS011;72791;52.546;13.570;2023-10-09T17:43:18;11.20;;;9.80;;
43640;SDS011;72791;52.546;13.570;2023-10-09T17:45:47;11.77;;;9.60;;
43640;SDS011;72791;52.546;13.570;2023-10-09T17:48:15;10.63;;;9.52;;
43640;SDS011;72791;52.546;13.570;2023-10-09T17:50:43;11.23;;;9.52;;
43640;SDS011;72791;52.546;13.570;2023-10-09T17:53:09;12.02;;;9.93;;
43640;SDS011;72791;52.546;13.570;2023-10-09T17:55:36;12.02;;;9.98;;
43640;SDS011;72791;52.546;13.570;2023-10-09T17:58:02;14.95;;;11.27;;
43640;SDS011;72791;52.546;13.570;2023-10-09T18:00:52;12.82;;;10.90;;
43640;SDS011;72791;52.546;13.570;2023-10-09T18:03:19;13.32;;;11.43;;
43640;SDS011;72791;52.546;13.570;2023-10-09T18:05:46;18.38;;;14.48;;
43640;SDS011;72791;52.546;13.570;2023-10-09T18:08:12;17.38;;;13.85;;
43640;SDS011;72791;52.546;13.570;2023-10-09T18:10:41;14.25;;;11.50;;
43640;SDS011;72791;52.546;13.570;2023-10-09T18:13:11;14.73;;;12.73;;
43640;SDS011;72791;52.546;13.570;2023-10-09T18:15:47;14.52;;;12.05;;
43640;SDS011;72791;52.546;13.570;2023-10-09T18:18:13;14.38;;;12.35;;
43640;SDS011;72791;52.546;13.570;2023-10-09T18:20:45;16.92;;;13.07;;
43640;SDS011;72791;52.546;13.570;2023-10-09T18:23:12;17.63;;;13.50;;
43640;SDS011;72791;52.546;13.570;2023-10-09T18:25:38;15.75;;;13.68;;
43640;SDS011;72791;52.546;13.570;2023-10-09T18:28:05;18.88;;;15.23;;
43640;SDS011;72791;52.546;13.570;2023-10-09T18:30:32;15.25;;;13.00;;
43640;SDS011;72791;52.546;13.570;2023-10-09T18:33:05;14.75;;;13.05;;
43640;SDS011;72791;52.546;13.570;2023-10-09T18:35:36;15.75;;;13.00;;
43640;SDS011;72791;52.546;13.570;2023-10-09T18:38:03;15.93;;;13.70;;
43640;SDS011;72791;52.546;13.570;2023-10-09T18:40:31;16.13;;;13.50;;
43640;SDS011;72791;52.546;13.570;2023-10-09T18:42:57;17.30;;;13.43;;
43640;SDS011;72791;52.546;13.570;2023-10-09T18:45:24;15.98;;;13.38;;
43640;SDS011;72791;52.546;13.570;2023-10-09T18:47:50;17.00;;;13.93;;
43640;SDS011;72791;52.546;13.570;2023-10-09T18:50:18;17.77;;;13.75;;
43640;SDS011;72791;52.546;13.570;2023-10-09T18:52:45;16.65;;;13.57;;
43640;SDS011;72791;52.546;13.570;2023-10-09T18:55:13;17.77;;;13.68;;
43640;SDS011;72791;52.546;13.570;2023-10-09T18:57:40;16.70;;;12.77;;
43640;SDS011;72791;52.546;13.570;2023-10-09T19:00:06;19.35;;;13.32;;
43640;SDS011;72791;52.546;13.570;2023-10-09T19:02:36;17.58;;;13.27;;
43640;SDS011;72791;52.546;13.570;2023-10-09T19:05:05;20.48;;;14.02;;
43640;SDS011;72791;52.546;13.570;2023-10-09T19:07:33;15.52;;;13.57;;
43640;SDS011;72791;52.546;13.570;2023-10-09T19:10:00;15.93;;;13.35;;
43640;SDS011;72791;52.546;13.570;2023-10-09T19:12:27;18.45;;;14.82;;
43640;SDS011;72791;52.546;13.570;2023-10-09T19:14:53;19.02;;;14.30;;
43640;SDS011;72791;52.546;13.570;2023-10-09T19:17:20;18.55;;;14.65;;
43640;SDS011;72791;52.546;13.570;2023-10-09T19:19:46;18.50;;;14.90;;
43640;SDS011;72791;52.546;13.570;2023-10-09T19:22:12;16.15;;;13.77;;
43640;SDS011;72791;52.546;13.570;2023-10-09T19:24:41;17.45;;;13.77;;
43640;SDS011;72791;52.546;13.570;2023-10-09T19:27:07;21.90;;;14.27;;
43640;SDS011;72791;52.546;13.570;2023-10-09T19:29:35;15.60;;;12.38;;
43640;SDS011;72791;52.546;13.570;2023-10-09T19:32:01;15.48;;;12.50;;
43640;SDS011;72791;52.546;13.570;2023-10-09T19:34:27;18.80;;;13.90;;
43640;SDS011;72791;52.546;13.570;2023-10-09T19:36:54;19.02;;;14.15;;
43640;SDS011;72791;52.546;13.570;2023-10-09T19:39:20;19.55;;;14.40;;
43640;SDS011;72791;52.546;13.570;2023-10-09T19:41:45;18.65;;;13.75;;
43640;SDS011;72791;52.546;13.570;2023-10-09T19:44:12;17.23;;;13.90;;